Time;durP1;ratioP1;P1;durP2;ratioP2;P2;SDS_P1;SDS_P2;PMS_P1;PMS_P2;Temp;Humidity;BMP_temperature;BMP_pressure;BME280_temperature;BME280_humidity;BME280_pressure;Samples;Min_cycle;Max_cycle;Signal;HPM_P1;HPM_P2
2022/03/18 00:02:13;;;;;;;12.52;2.00;;;23.60;99.90;;;;;;4993276;28;20293;-82
2022/03/18 00:04:44;;;;;;;6.35;1.40;;;23.80;99.90;;;;;;4990604;28;20794;-82
2022/03/18 00:07:14;;;;;;;11.05;1.92;;;23.90;99.90;;;;;;4988442;28;20203;-82
2022/03/18 00:09:45;;;;;;;7.22;1.42;;;24.00;99.90;;;;;;4990773;28;20195;-81
2022/03/18 00:12:16;;;;;;;9.50;1.90;;;24.10;99.90;;;;;;4994590;28;20203;-81
2022/03/18 00:14:49;;;;;;;8.23;1.60;;;24.10;99.90;;;;;;4992644;28;20200;-81
2022/03/18 00:17:19;;;;;;;9.02;2.25;;;24.30;99.90;;;;;;4993817;28;20211;-80
2022/03/18 00:19:50;;;;;;;8.40;1.83;;;24.30;99.90;;;;;;4993119;28;20208;-81
2022/03/18 00:22:21;;;;;;;8.90;1.80;;;24.40;99.90;;;;;;4997907;28;20194;-81
2022/03/18 00:24:52;;;;;;;8.63;1.80;;;24.40;99.90;;;;;;4992448;28;20204;-80
2022/03/18 00:27:23;;;;;;;7.65;1.70;;;24.50;99.90;;;;;;4994500;28;20188;-81
2022/03/18 00:29:56;;;;;;;7.43;1.60;;;24.50;99.90;;;;;;4994341;28;20261;-81
2022/03/18 00:32:27;;;;;;;7.07;1.70;;;24.60;99.90;;;;;;4994192;28;20242;-81
2022/03/18 00:34:57;;;;;;;7.55;1.75;;;24.60;99.90;;;;;;4994370;28;20655;-81
2022/03/18 00:37:28;;;;;;;9.52;2.08;;;24.60;99.90;;;;;;4994617;28;20258;-82
2022/03/18 00:39:58;;;;;;;5.72;1.50;;;24.70;99.90;;;;;;4993665;28;20248;-81
2022/03/18 00:42:30;;;;;;;7.75;1.92;;;24.90;99.90;;;;;;4981501;28;20196;-81
2022/03/18 00:45:03;;;;;;;5.80;1.40;;;25.00;99.90;;;;;;4994015;28;20232;-80
2022/03/18 00:53:08;;;;;;;6.05;1.30;;;25.20;99.90;;;;;;4986507;28;20572;-80
2022/03/18 00:55:38;;;;;;;5.60;1.30;;;25.30;99.90;;;;;;4995529;28;20203;-81
2022/03/18 00:58:09;;;;;;;7.97;1.80;;;25.50;99.90;;;;;;4993910;28;20566;-80
2022/03/18 01:00:41;;;;;;;9.48;2.00;;;25.50;99.90;;;;;;4994117;28;20195;-80
2022/03/18 01:03:15;;;;;;;7.43;1.50;;;25.60;99.90;;;;;;4993676;28;20211;-80
2022/03/18 01:05:46;;;;;;;4.90;1.30;;;25.70;99.90;;;;;;4994824;28;20204;-80
2022/03/18 01:08:16;;;;;;;8.23;1.60;;;25.90;99.90;;;;;;4993704;28;20196;-81
2022/03/18 01:10:47;;;;;;;7.72;1.98;;;26.00;99.90;;;;;;4994814;28;20262;-80
2022/03/18 01:13:18;;;;;;;4.85;1.40;;;26.10;99.90;;;;;;4994308;28;20199;-80
2022/03/18 01:15:50;;;;;;;55.38;13.13;;;26.30;99.90;;;;;;4993935;28;20251;-80
2022/03/18 01:18:21;;;;;;;12.27;3.25;;;26.40;99.90;;;;;;4998183;28;20242;-81
2022/03/18 01:20:51;;;;;;;5.15;1.15;;;26.50;99.90;;;;;;4994308;28;20625;-81
2022/03/18 01:23:23;;;;;;;5.60;1.15;;;26.50;99.90;;;;;;4993830;28;20215;-80
2022/03/18 01:25:54;;;;;;;3.75;1.13;;;26.70;99.90;;;;;;4994669;28;20195;-81
2022/03/18 01:28:24;;;;;;;5.22;1.15;;;26.80;99.90;;;;;;4998983;28;20202;-80
2022/03/18 01:30:57;;;;;;;4.32;1.00;;;26.80;99.90;;;;;;4994977;28;20207;-80
2022/03/18 01:33:27;;;;;;;3.50;1.05;;;26.90;99.90;;;;;;4993075;28;20199;-80
2022/03/18 01:35:58;;;;;;;4.25;1.00;;;26.90;99.90;;;;;;4994038;28;20262;-80
2022/03/18 01:38:29;;;;;;;4.95;0.80;;;26.90;99.90;;;;;;4993892;28;20249;-80
2022/03/18 01:40:59;;;;;;;3.53;0.93;;;26.90;99.90;;;;;;4993488;28;20202;-80
2022/03/18 01:43:30;;;;;;;7.60;1.10;;;27.00;99.90;;;;;;4992915;28;20639;-80
2022/03/18 01:46:03;;;;;;;5.47;0.98;;;27.10;99.90;;;;;;4992073;28;20214;-81
2022/03/18 01:48:33;;;;;;;3.35;0.95;;;27.20;99.90;;;;;;4992386;28;20198;-80
2022/03/18 01:51:05;;;;;;;7.20;1.42;;;27.30;99.90;;;;;;4990429;28;20196;-80
2022/03/18 01:53:38;;;;;;;3.42;1.20;;;27.30;99.90;;;;;;4992649;28;20199;-80
2022/03/18 01:56:09;;;;;;;3.05;1.02;;;27.30;99.90;;;;;;4995351;28;20192;-81
2022/03/18 01:58:40;;;;;;;7.15;1.52;;;27.30;99.90;;;;;;4992014;28;20223;-81
2022/03/18 02:01:12;;;;;;;4.43;1.13;;;27.30;99.90;;;;;;4996964;28;20246;-81
2022/03/18 02:03:43;;;;;;;5.55;1.55;;;27.30;99.90;;;;;;4996573;28;20682;-80
2022/03/18 02:06:14;;;;;;;7.10;1.20;;;27.30;99.90;;;;;;4992881;28;20270;-80
2022/03/18 02:08:47;;;;;;;5.30;1.10;;;27.30;99.90;;;;;;4997671;28;20627;-80
2022/03/18 02:11:18;;;;;;;5.63;1.15;;;27.40;99.90;;;;;;4990887;28;20219;-80
2022/03/18 02:13:53;;;;;;;6.75;1.20;;;27.40;99.90;;;;;;4989845;28;20195;-80
2022/03/18 02:16:25;;;;;;;5.43;1.30;;;27.60;99.90;;;;;;4991890;28;20684;-80
2022/03/18 02:18:56;;;;;;;6.85;1.40;;;27.50;99.90;;;;;;4993066;28;20254;-80
2022/03/18 02:21:29;;;;;;;6.78;1.20;;;27.40;99.90;;;;;;4995067;28;20716;-80
2022/03/18 02:24:02;;;;;;;5.50;1.15;;;27.40;99.90;;;;;;4988083;28;20285;-79
2022/03/18 02:26:32;;;;;;;6.38;1.40;;;27.40;99.90;;;;;;4993650;28;20294;-78
2022/03/18 02:29:04;;;;;;;5.32;1.20;;;27.40;99.90;;;;;;4994276;28;20294;-80
2022/03/18 02:31:34;;;;;;;8.32;1.83;;;27.60;99.90;;;;;;4996529;28;20339;-79
2022/03/18 02:34:05;;;;;;;5.43;1.50;;;27.60;99.90;;;;;;4995156;28;20590;-80
2022/03/18 02:36:36;;;;;;;7.70;1.30;;;27.70;99.90;;;;;;4995765;28;20254;-80
2022/03/18 02:39:08;;;;;;;7.28;1.55;;;27.70;99.90;;;;;;4993696;28;20196;-80
2022/03/18 02:41:39;;;;;;;6.30;1.40;;;27.80;99.90;;;;;;4988526;28;20882;-80
2022/03/18 02:44:10;;;;;;;6.25;1.40;;;27.80;99.90;;;;;;4999838;28;20246;-79
2022/03/18 02:46:41;;;;;;;12.73;3.55;;;27.90;99.90;;;;;;4999824;28;20199;-80
2022/03/18 02:49:11;;;;;;;5.90;1.42;;;27.80;99.90;;;;;;4989046;28;20718;-79
2022/03/18 02:51:42;;;;;;;7.28;1.35;;;27.70;99.90;;;;;;4990848;28;20244;-80
2022/03/18 02:54:14;;;;;;;7.13;1.70;;;27.70;99.90;;;;;;4987239;28;20206;-80
2022/03/18 02:56:45;;;;;;;5.60;1.65;;;27.80;99.90;;;;;;4989318;28;20625;-79
2022/03/18 02:59:16;;;;;;;6.75;1.50;;;27.80;99.90;;;;;;4990502;28;20253;-80
2022/03/18 03:01:46;;;;;;;4.60;1.23;;;27.80;99.90;;;;;;4990352;28;20663;-79
2022/03/18 03:04:17;;;;;;;5.63;1.30;;;27.80;99.90;;;;;;4989917;28;20617;-79
2022/03/18 03:09:36;;;;;;;10.55;1.73;;;27.50;99.90;;;;;;4988078;28;20195;-80
2022/03/18 03:12:07;;;;;;;5.55;1.70;;;27.60;99.90;;;;;;4996553;28;20200;-82
2022/03/18 03:14:38;;;;;;;5.32;1.50;;;27.70;99.90;;;;;;4996036;28;20195;-80
2022/03/18 03:17:11;;;;;;;8.77;1.85;;;27.80;99.90;;;;;;4996047;28;20207;-80
2022/03/18 03:19:42;;;;;;;7.45;1.83;;;27.80;99.90;;;;;;4996410;28;20195;-80
2022/03/18 03:22:13;;;;;;;7.72;1.80;;;27.90;99.90;;;;;;4995564;28;20204;-80
2022/03/18 03:24:45;;;;;;;8.02;1.65;;;28.00;99.90;;;;;;5007872;28;20689;-81
2022/03/18 03:27:16;;;;;;;6.72;1.52;;;28.10;99.90;;;;;;5015759;28;20642;-83
2022/03/18 03:29:48;;;;;;;7.20;1.90;;;28.20;99.90;;;;;;5003572;28;20772;-82
2022/03/18 03:32:19;;;;;;;9.15;1.83;;;28.10;99.90;;;;;;4995286;28;20204;-81
2022/03/18 03:34:50;;;;;;;5.90;1.52;;;27.90;99.90;;;;;;4995833;28;20196;-80
2022/03/18 03:37:20;;;;;;;9.63;1.77;;;27.60;99.90;;;;;;4997683;28;20200;-80
2022/03/18 03:39:53;;;;;;;6.47;1.67;;;27.60;99.90;;;;;;4992352;28;20188;-81
2022/03/18 03:42:24;;;;;;;7.32;1.67;;;27.80;99.90;;;;;;4995694;28;20195;-80
2022/03/18 03:44:54;;;;;;;6.95;1.88;;;27.80;99.90;;;;;;4993089;28;20620;-80
2022/03/18 03:47:25;;;;;;;6.90;1.77;;;27.80;99.90;;;;;;4992062;28;20212;-82
2022/03/18 03:49:56;;;;;;;5.45;1.50;;;27.70;99.90;;;;;;4991833;28;20192;-81
2022/03/18 03:52:26;;;;;;;6.28;1.70;;;27.70;99.90;;;;;;4995713;28;20564;-79
2022/03/18 03:54:59;;;;;;;6.68;1.55;;;27.80;99.90;;;;;;4982841;28;20207;-80
2022/03/18 03:57:29;;;;;;;8.05;1.60;;;27.70;99.90;;;;;;4976187;28;20188;-81
2022/03/18 04:00:00;;;;;;;6.22;1.50;;;27.80;99.90;;;;;;4992807;28;20195;-80
2022/03/18 04:02:31;;;;;;;7.53;1.63;;;27.80;99.90;;;;;;4994972;28;20639;-79
2022/03/18 04:05:01;;;;;;;9.63;2.10;;;27.90;99.90;;;;;;4993023;28;20678;-82
2022/03/18 04:07:32;;;;;;;5.47;1.90;;;27.90;99.90;;;;;;4995281;28;20195;-79
2022/03/18 04:10:05;;;;;;;5.78;1.75;;;27.70;99.90;;;;;;4995178;28;20191;-81
2022/03/18 04:12:35;;;;;;;6.80;1.90;;;27.70;99.90;;;;;;4994271;28;20195;-80
2022/03/18 04:15:08;;;;;;;8.65;1.80;;;27.70;99.90;;;;;;4995149;28;20234;-81
2022/03/18 04:17:43;;;;;;;5.20;1.80;;;27.70;99.90;;;;;;4990113;28;20246;-83
2022/03/18 04:20:15;;;;;;;7.90;1.70;;;27.70;99.90;;;;;;4987864;28;20278;-79
2022/03/18 04:22:46;;;;;;;5.78;1.83;;;27.70;99.90;;;;;;4992156;28;20203;-79
2022/03/18 04:25:20;;;;;;;10.90;1.83;;;27.70;99.90;;;;;;4993817;28;20215;-80
2022/03/18 04:27:51;;;;;;;6.75;1.67;;;27.60;99.90;;;;;;4990073;28;20199;-81
2022/03/18 04:30:21;;;;;;;5.15;1.75;;;27.60;99.90;;;;;;4994827;28;20208;-81
2022/03/18 04:32:52;;;;;;;8.15;1.92;;;27.60;99.90;;;;;;4998883;28;20856;-79
2022/03/18 04:35:23;;;;;;;6.35;1.80;;;27.40;99.90;;;;;;4996695;28;20255;-79
2022/03/18 04:37:54;;;;;;;9.63;1.60;;;27.50;99.90;;;;;;4990762;28;20227;-80
2022/03/18 04:40:27;;;;;;;4.88;1.58;;;27.50;99.90;;;;;;4993380;28;20195;-81
2022/03/18 04:42:57;;;;;;;6.65;1.58;;;27.60;99.90;;;;;;4993043;28;20702;-79
2022/03/18 04:45:28;;;;;;;6.22;2.05;;;27.60;99.90;;;;;;4987256;28;20223;-79
2022/03/18 04:47:59;;;;;;;9.50;1.73;;;27.60;99.90;;;;;;4994665;28;20234;-79
2022/03/18 04:50:29;;;;;;;2.90;1.23;;;27.60;99.90;;;;;;4993420;28;20188;-79
2022/03/18 04:53:00;;;;;;;5.45;1.52;;;27.60;99.90;;;;;;4994546;28;20639;-80
2022/03/18 04:55:32;;;;;;;5.05;1.30;;;27.60;99.90;;;;;;4994642;28;20273;-83
2022/03/18 04:58:03;;;;;;;5.32;1.70;;;27.50;99.90;;;;;;4994278;28;20200;-79
2022/03/18 05:00:35;;;;;;;4.60;1.60;;;27.50;99.90;;;;;;4993704;28;20562;-79
2022/03/18 05:03:06;;;;;;;4.47;1.48;;;27.50;99.90;;;;;;4993566;28;20236;-79
2022/03/18 05:05:37;;;;;;;5.30;1.73;;;27.50;99.90;;;;;;4994234;28;20219;-79
2022/03/18 05:08:08;;;;;;;6.38;1.40;;;27.40;99.90;;;;;;4993846;28;20697;-79
2022/03/18 05:10:41;;;;;;;3.15;1.30;;;27.30;99.90;;;;;;4994367;28;20204;-78
2022/03/18 05:13:12;;;;;;;2.97;1.30;;;27.30;99.90;;;;;;4994078;28;20192;-79
2022/03/18 05:15:43;;;;;;;6.85;1.65;;;27.30;99.90;;;;;;4993819;28;20274;-78
2022/03/18 05:18:13;;;;;;;4.85;1.30;;;27.30;99.90;;;;;;4993656;28;20191;-80
2022/03/18 05:20:44;;;;;;;6.97;1.45;;;27.40;99.90;;;;;;4993696;28;20183;-79
2022/03/18 05:23:14;;;;;;;6.70;1.40;;;27.40;99.90;;;;;;4991089;28;20243;-79
2022/03/18 05:25:47;;;;;;;6.97;1.50;;;27.40;99.90;;;;;;4993156;28;20215;-78
2022/03/18 05:28:18;;;;;;;6.47;1.42;;;27.20;99.90;;;;;;4991032;28;20194;-79
2022/03/18 05:30:48;;;;;;;5.80;1.30;;;27.10;99.90;;;;;;4993677;28;20196;-78
2022/03/18 05:33:19;;;;;;;7.40;1.50;;;27.10;99.90;;;;;;4993378;28;20191;-79
2022/03/18 05:35:50;;;;;;;5.25;1.40;;;27.10;99.90;;;;;;4990413;28;20685;-79
2022/03/18 05:38:20;;;;;;;9.38;1.38;;;27.00;99.90;;;;;;4992739;28;20192;-78
2022/03/18 05:40:56;;;;;;;7.50;1.90;;;26.90;99.90;;;;;;4993484;28;20195;-80
2022/03/18 05:43:27;;;;;;;3.75;1.45;;;26.90;99.90;;;;;;4992556;28;20239;-79
2022/03/18 05:45:58;;;;;;;7.03;1.50;;;27.00;99.90;;;;;;4993634;28;20215;-79
2022/03/18 05:48:28;;;;;;;7.00;1.60;;;27.00;99.90;;;;;;4993125;28;20197;-81
2022/03/18 05:51:00;;;;;;;6.00;1.60;;;27.00;99.90;;;;;;4993088;28;20726;-79
2022/03/18 05:53:31;;;;;;;4.95;1.58;;;27.00;99.90;;;;;;4993397;28;20191;-79
2022/03/18 05:58:50;;;;;;;4.30;1.52;;;27.00;99.90;;;;;;4987805;28;20195;-80
2022/03/18 06:01:21;;;;;;;3.83;1.40;;;27.00;99.90;;;;;;4993802;28;20250;-79
2022/03/18 06:03:52;;;;;;;5.53;1.65;;;26.80;99.90;;;;;;4993271;28;20266;-79
2022/03/18 06:06:23;;;;;;;6.63;1.80;;;26.70;99.90;;;;;;4980018;28;20216;-79
2022/03/18 06:11:55;;;;;;;5.90;2.05;;;26.50;99.90;;;;;;4952279;29;20197;-80
2022/03/18 06:14:26;;;;;;;4.80;1.83;;;26.50;99.90;;;;;;4982562;28;20191;-81
2022/03/18 06:16:58;;;;;;;9.10;1.98;;;26.40;99.90;;;;;;4993167;28;20191;-80
2022/03/18 06:19:29;;;;;;;6.80;1.88;;;26.50;99.90;;;;;;4993159;28;20242;-79
2022/03/18 06:22:01;;;;;;;6.45;1.92;;;26.50;99.90;;;;;;4992625;28;20195;-79
2022/03/18 06:24:32;;;;;;;6.00;1.77;;;26.50;99.90;;;;;;4993047;28;20636;-81
2022/03/18 06:27:04;;;;;;;5.75;1.63;;;26.40;99.90;;;;;;4992967;28;20199;-79
2022/03/18 06:29:35;;;;;;;5.22;1.60;;;26.40;99.90;;;;;;4993380;28;20187;-79
2022/03/18 06:32:06;;;;;;;10.48;2.10;;;26.40;99.90;;;;;;4992980;28;20192;-79
2022/03/18 06:34:37;;;;;;;4.28;1.45;;;26.30;99.90;;;;;;4984630;28;20200;-80
2022/03/18 06:37:08;;;;;;;5.90;1.60;;;26.30;99.90;;;;;;4993003;28;20876;-79
2022/03/18 06:39:38;;;;;;;5.32;1.45;;;26.20;99.90;;;;;;4993145;28;20192;-79
2022/03/18 06:42:11;;;;;;;7.70;2.00;;;26.10;99.90;;;;;;4995194;28;20266;-78
2022/03/18 06:44:42;;;;;;;6.97;2.75;;;26.10;99.90;;;;;;4995460;28;20246;-79
2022/03/18 06:47:12;;;;;;;7.63;2.72;;;26.10;99.90;;;;;;4996336;28;20210;-79
2022/03/18 06:49:43;;;;;;;5.20;2.15;;;26.10;99.90;;;;;;4996310;28;20561;-79
2022/03/18 06:52:14;;;;;;;4.95;2.15;;;26.10;99.90;;;;;;4995674;28;20235;-80
2022/03/18 06:54:44;;;;;;;5.18;1.98;;;26.00;99.90;;;;;;4997232;28;20200;-80
2022/03/18 06:57:17;;;;;;;7.80;2.00;;;26.00;99.90;;;;;;4993740;28;20188;-79
2022/03/18 06:59:47;;;;;;;6.65;2.17;;;25.90;99.90;;;;;;4993111;28;20207;-78
2022/03/18 07:02:18;;;;;;;6.20;1.90;;;25.90;99.90;;;;;;4996154;28;20195;-79
2022/03/18 07:04:49;;;;;;;8.02;1.90;;;25.80;99.90;;;;;;4992389;28;20359;-78
2022/03/18 07:07:19;;;;;;;11.27;1.90;;;25.80;99.90;;;;;;4996330;28;20604;-78
2022/03/18 07:09:53;;;;;;;7.07;1.50;;;25.70;99.90;;;;;;4992641;28;20242;-79
2022/03/18 07:12:27;;;;;;;5.75;1.80;;;25.60;99.90;;;;;;4995458;28;20639;-79
2022/03/18 07:14:57;;;;;;;9.00;2.33;;;25.60;99.90;;;;;;4995843;28;20223;-78
2022/03/18 07:20:15;;;;;;;5.82;1.60;;;25.50;99.90;;;;;;4993497;28;20187;-78
2022/03/18 07:22:45;;;;;;;7.68;2.40;;;25.40;99.90;;;;;;4995384;28;20622;-78
2022/03/18 07:25:16;;;;;;;5.72;2.08;;;25.40;99.90;;;;;;4995678;28;20270;-78
2022/03/18 07:27:49;;;;;;;9.88;2.50;;;25.30;99.90;;;;;;4994997;28;20701;-79
2022/03/18 07:30:19;;;;;;;6.35;2.30;;;25.30;99.90;;;;;;4985823;28;20191;-77
2022/03/18 07:32:53;;;;;;;5.85;2.10;;;25.20;99.90;;;;;;4991873;28;20195;-77
2022/03/18 07:35:24;;;;;;;5.80;2.05;;;25.20;99.90;;;;;;4986501;28;20191;-78
2022/03/18 07:37:55;;;;;;;5.93;2.15;;;25.10;99.90;;;;;;4995496;28;20192;-79
2022/03/18 07:40:25;;;;;;;9.15;2.35;;;25.00;99.90;;;;;;4995170;28;20557;-77
2022/03/18 07:42:58;;;;;;;7.65;2.20;;;24.90;99.90;;;;;;4994785;28;20587;-78
2022/03/18 07:45:30;;;;;;;7.53;2.08;;;24.90;99.90;;;;;;4986958;28;20216;-78
2022/03/18 07:48:03;;;;;;;9.95;2.60;;;24.80;99.90;;;;;;4995255;28;20192;-79
2022/03/18 07:50:34;;;;;;;4.32;1.60;;;24.80;99.90;;;;;;4995117;28;20192;-79
2022/03/18 07:53:07;;;;;;;8.27;2.00;;;24.70;99.90;;;;;;4994447;28;20188;-78
2022/03/18 07:55:40;;;;;;;9.20;2.30;;;24.60;99.90;;;;;;5000441;28;20889;-78
2022/03/18 07:58:12;;;;;;;9.93;2.10;;;24.60;99.90;;;;;;4992026;28;20234;-79
2022/03/18 08:00:43;;;;;;;8.18;1.67;;;24.50;99.90;;;;;;4994855;28;20228;-79
2022/03/18 08:03:14;;;;;;;6.13;1.45;;;24.50;99.90;;;;;;4984294;28;20188;-78
2022/03/18 08:05:45;;;;;;;10.70;1.85;;;24.50;99.90;;;;;;4995172;28;20266;-80
2022/03/18 08:08:15;;;;;;;9.15;1.67;;;24.50;99.90;;;;;;4984725;28;20191;-80
2022/03/18 08:10:46;;;;;;;9.02;1.65;;;24.40;99.90;;;;;;4994937;28;20188;-79
2022/03/18 08:13:19;;;;;;;10.50;1.70;;;24.40;99.90;;;;;;4994548;28;20192;-79
2022/03/18 08:15:50;;;;;;;6.68;1.83;;;24.40;99.90;;;;;;4991780;28;20196;-79
2022/03/18 08:18:22;;;;;;;10.05;2.03;;;24.40;99.90;;;;;;4994038;28;20191;-79
2022/03/18 08:20:54;;;;;;;8.38;1.60;;;24.30;99.90;;;;;;4992062;28;20235;-78
2022/03/18 08:23:27;;;;;;;6.57;1.63;;;24.30;99.90;;;;;;4994748;28;20196;-79
2022/03/18 08:25:57;;;;;;;4.85;1.60;;;24.30;99.90;;;;;;4995596;28;20306;-80
2022/03/18 08:28:30;;;;;;;11.20;1.80;;;24.30;99.90;;;;;;4994869;28;20184;-79
2022/03/18 08:31:00;;;;;;;7.63;2.03;;;24.20;99.90;;;;;;4994269;28;20195;-79
2022/03/18 08:33:32;;;;;;;8.05;1.85;;;24.20;99.90;;;;;;4994500;28;20192;-79
2022/03/18 08:36:03;;;;;;;9.30;2.00;;;24.10;99.90;;;;;;4992579;28;20199;-79
2022/03/18 08:38:33;;;;;;;6.72;1.73;;;24.10;99.90;;;;;;4995711;28;20192;-80
2022/03/18 08:41:04;;;;;;;7.47;1.73;;;24.10;99.90;;;;;;4994811;28;20192;-79
2022/03/18 08:43:36;;;;;;;6.10;1.75;;;24.10;99.90;;;;;;4993661;28;20316;-79
2022/03/18 08:46:07;;;;;;;9.07;1.90;;;24.10;99.90;;;;;;4993907;28;20214;-79
2022/03/18 08:48:38;;;;;;;8.10;1.88;;;24.00;99.90;;;;;;4994576;28;20713;-79
2022/03/18 08:51:10;;;;;;;7.03;1.80;;;24.00;99.90;;;;;;4993587;28;20710;-80
2022/03/18 08:53:41;;;;;;;9.20;1.77;;;24.00;99.90;;;;;;4992699;28;20202;-79
2022/03/18 08:56:11;;;;;;;7.28;1.90;;;24.00;99.90;;;;;;4993142;28;20709;-79
2022/03/18 08:58:44;;;;;;;7.43;1.90;;;24.00;99.90;;;;;;4989409;28;20254;-78
2022/03/18 09:01:14;;;;;;;7.50;1.90;;;23.90;99.90;;;;;;4994702;28;20194;-78
2022/03/18 09:03:45;;;;;;;4.63;1.63;;;23.90;99.90;;;;;;4992901;28;20639;-78
2022/03/18 09:06:16;;;;;;;7.00;1.88;;;23.90;99.90;;;;;;4993600;28;20215;-78
2022/03/18 09:08:47;;;;;;;7.00;1.70;;;23.90;99.90;;;;;;4994173;28;20202;-78
2022/03/18 09:11:17;;;;;;;7.70;1.77;;;23.80;99.90;;;;;;4993563;28;20195;-78
2022/03/18 09:13:50;;;;;;;10.07;2.20;;;23.80;99.90;;;;;;4987631;28;20199;-78
2022/03/18 09:16:21;;;;;;;7.15;1.90;;;23.90;99.90;;;;;;4992116;28;20246;-79
2022/03/18 09:18:51;;;;;;;8.82;2.13;;;23.80;99.90;;;;;;4991334;28;20191;-78
2022/03/18 09:21:22;;;;;;;8.32;2.10;;;23.80;99.90;;;;;;4992867;28;20195;-77
2022/03/18 09:23:52;;;;;;;10.00;2.38;;;23.80;99.90;;;;;;4993535;28;20192;-80
2022/03/18 09:26:23;;;;;;;6.30;2.30;;;23.80;99.90;;;;;;4992450;28;20678;-80
2022/03/18 09:28:56;;;;;;;4.53;1.90;;;23.80;99.90;;;;;;4993235;28;20195;-80
2022/03/18 09:31:26;;;;;;;8.18;2.30;;;23.80;99.90;;;;;;4993102;28;20246;-79
2022/03/18 09:33:57;;;;;;;8.18;2.22;;;23.80;99.90;;;;;;4991157;28;20192;-78
2022/03/18 09:36:28;;;;;;;8.60;2.08;;;23.70;99.90;;;;;;4993777;28;20576;-78
2022/03/18 09:38:58;;;;;;;5.45;2.00;;;23.70;99.90;;;;;;4993586;28;20199;-78
2022/03/18 09:41:30;;;;;;;8.25;2.40;;;23.70;99.90;;;;;;4993334;28;20605;-77
2022/03/18 09:44:03;;;;;;;10.50;3.08;;;23.80;99.90;;;;;;4992509;28;20267;-83
2022/03/18 09:46:34;;;;;;;13.23;4.13;;;23.80;99.90;;;;;;4993582;28;20211;-84
2022/03/18 09:49:06;;;;;;;22.65;5.60;;;23.50;99.90;;;;;;4997179;28;20717;-79
2022/03/18 09:51:37;;;;;;;18.92;5.00;;;23.20;99.90;;;;;;4992837;28;20184;-80
2022/03/18 09:54:08;;;;;;;11.40;4.43;;;22.80;99.90;;;;;;4993346;28;20191;-80
2022/03/18 09:56:41;;;;;;;8.38;4.05;;;22.60;99.90;;;;;;4991876;28;20183;-78
2022/03/18 09:59:16;;;;;;;14.68;4.50;;;22.40;99.90;;;;;;4993167;28;20280;-85
2022/03/18 10:01:47;;;;;;;7.28;2.85;;;22.20;99.90;;;;;;4989549;28;20214;-79
2022/03/18 10:04:18;;;;;;;7.00;3.25;;;21.90;99.90;;;;;;4983038;28;20188;-80
2022/03/18 10:06:48;;;;;;;8.07;3.28;;;21.60;99.90;;;;;;4989595;28;20215;-80
2022/03/18 10:09:28;;;;;;;7.72;3.85;;;21.30;99.90;;;;;;4992296;28;20203;-79
2022/03/18 10:12:00;;;;;;;8.00;3.30;;;21.10;99.90;;;;;;4991025;28;20278;-79
2022/03/18 10:14:33;;;;;;;6.55;3.33;;;21.00;99.90;;;;;;4993154;28;20202;-79
2022/03/18 10:17:04;;;;;;;7.35;3.47;;;20.90;99.90;;;;;;4996484;28;20651;-79
2022/03/18 10:19:46;;;;;;;9.23;3.92;;;20.80;99.90;;;;;;4997376;28;20195;-79
2022/03/18 10:22:23;;;;;;;6.15;3.75;;;20.80;99.90;;;;;;4996355;28;20197;-79
2022/03/18 10:24:54;;;;;;;6.97;3.70;;;20.80;99.90;;;;;;4993935;28;20194;-79
2022/03/18 10:27:25;;;;;;;9.23;4.03;;;20.80;99.90;;;;;;4994613;28;20270;-79
2022/03/18 10:29:58;;;;;;;10.05;4.22;;;20.80;99.90;;;;;;4998116;28;20192;-79
2022/03/18 10:32:29;;;;;;;8.05;4.40;;;20.80;99.90;;;;;;5001193;28;20203;-79
2022/03/18 10:38:01;;;;;;;6.50;4.95;;;20.90;99.90;;;;;;4955092;29;20279;-80
2022/03/18 10:40:39;;;;;;;10.63;5.30;;;20.90;99.90;;;;;;4954066;29;20194;-79
2022/03/18 10:43:10;;;;;;;12.25;5.18;;;20.90;99.90;;;;;;4973850;28;20223;-81
2022/03/18 10:46:07;;;;;;;11.40;5.05;;;21.00;99.90;;;;;;4995661;28;20184;-79
2022/03/18 10:48:38;;;;;;;9.13;5.15;;;21.00;99.90;;;;;;4996461;28;20188;-80
2022/03/18 10:51:10;;;;;;;11.57;5.18;;;21.00;99.90;;;;;;4996344;28;20611;-80
2022/03/18 10:53:41;;;;;;;13.75;5.38;;;21.10;99.90;;;;;;4996962;28;20271;-82
2022/03/18 10:56:12;;;;;;;10.85;4.95;;;21.10;99.90;;;;;;4996148;28;20199;-81
2022/03/18 10:58:42;;;;;;;10.25;5.88;;;21.10;99.90;;;;;;4996110;28;20191;-82
2022/03/18 11:01:16;;;;;;;14.90;5.60;;;21.10;99.90;;;;;;4995567;28;20340;-82
2022/03/18 11:03:47;;;;;;;9.75;6.10;;;21.20;99.90;;;;;;4995037;28;20549;-81
2022/03/18 11:06:20;;;;;;;12.05;5.82;;;21.20;99.90;;;;;;4995605;28;20619;-82
2022/03/18 11:08:51;;;;;;;7.05;4.82;;;21.20;99.90;;;;;;4995706;28;20254;-82
2022/03/18 11:11:24;;;;;;;12.82;5.50;;;21.30;99.90;;;;;;4995507;28;20188;-82
2022/03/18 11:14:00;;;;;;;10.52;5.40;;;21.30;99.90;;;;;;4994970;28;20211;-82
2022/03/18 11:16:34;;;;;;;11.88;5.55;;;21.30;99.90;;;;;;4995013;28;20187;-82
2022/03/18 11:19:08;;;;;;;9.90;5.45;;;21.40;99.90;;;;;;4992392;28;20195;-82
2022/03/18 11:21:40;;;;;;;7.85;5.20;;;21.30;99.90;;;;;;4995557;28;20191;-82
2022/03/18 11:24:13;;;;;;;8.45;5.60;;;21.40;99.90;;;;;;4995121;28;20615;-82
2022/03/18 11:26:49;;;;;;;12.02;5.50;;;21.40;99.90;;;;;;4994650;28;20212;-82
2022/03/18 11:29:24;;;;;;;9.85;4.95;;;21.40;99.90;;;;;;4992662;28;20187;-83
2022/03/18 11:32:23;;;;;;;14.40;5.85;;;21.50;99.90;;;;;;4992371;28;20195;-82
2022/03/18 11:35:01;;;;;;;10.50;5.00;;;21.50;99.90;;;;;;4993789;28;20612;-82
2022/03/18 11:37:38;;;;;;;13.73;5.43;;;21.50;99.90;;;;;;4994812;28;20570;-83
2022/03/18 11:40:30;;;;;;;13.13;5.07;;;21.50;99.90;;;;;;4993624;28;20204;-84
2022/03/18 11:43:22;;;;;;;14.25;5.18;;;21.50;99.90;;;;;;4993139;28;20224;-83
2022/03/18 11:45:55;;;;;;;8.95;4.88;;;21.50;99.90;;;;;;4991407;28;20204;-84
2022/03/18 11:48:43;;;;;;;9.82;4.95;;;21.50;99.90;;;;;;4995356;28;20188;-84
2022/03/18 11:51:28;;;;;;;9.38;4.70;;;21.50;99.90;;;;;;4994602;28;20607;-83
2022/03/18 11:54:01;;;;;;;11.00;4.80;;;21.50;99.90;;;;;;4995172;28;20203;-84
2022/03/18 11:56:50;;;;;;;11.52;4.60;;;21.60;99.90;;;;;;4994849;28;20227;-84
2022/03/18 11:59:50;;;;;;;13.85;4.50;;;21.60;99.90;;;;;;4994619;28;20238;-84
2022/03/18 12:02:33;;;;;;;11.80;5.28;;;21.60;99.90;;;;;;4992932;28;20275;-83
2022/03/18 12:05:08;;;;;;;11.65;4.45;;;21.60;99.90;;;;;;4993353;28;20269;-83
2022/03/18 12:07:52;;;;;;;10.65;4.40;;;21.60;99.90;;;;;;4992554;28;20215;-83
2022/03/18 12:10:36;;;;;;;10.57;4.20;;;21.60;99.90;;;;;;4993471;28;20196;-84
2022/03/18 12:13:09;;;;;;;13.98;4.63;;;21.60;99.90;;;;;;4994924;28;20640;-85
2022/03/18 12:15:42;;;;;;;10.63;4.20;;;21.60;99.90;;;;;;4993381;28;20231;-84
2022/03/18 12:18:13;;;;;;;12.32;4.50;;;21.70;99.90;;;;;;4994898;28;20218;-84
2022/03/18 12:20:46;;;;;;;8.25;4.20;;;21.70;99.90;;;;;;4994962;28;20216;-85
2022/03/18 12:23:17;;;;;;;11.63;4.22;;;21.70;99.90;;;;;;4994062;28;20192;-84
2022/03/18 12:25:47;;;;;;;11.07;4.50;;;21.60;99.90;;;;;;4990779;28;20537;-83
2022/03/18 12:28:19;;;;;;;10.05;4.15;;;21.70;99.90;;;;;;4984401;28;20216;-84
2022/03/18 12:30:50;;;;;;;11.93;4.22;;;21.70;99.90;;;;;;4991028;28;20273;-84
2022/03/18 12:33:20;;;;;;;11.45;4.40;;;21.60;99.90;;;;;;4988944;28;20196;-84
2022/03/18 12:35:53;;;;;;;13.35;4.40;;;21.60;99.90;;;;;;4994239;28;20212;-84
2022/03/18 12:38:23;;;;;;;9.73;4.68;;;21.60;99.90;;;;;;4992247;28;20203;-84
2022/03/18 12:40:59;;;;;;;9.98;3.90;;;21.60;99.90;;;;;;4993965;28;20195;-84
2022/03/18 12:43:31;;;;;;;14.35;4.40;;;21.60;99.90;;;;;;4993393;28;20239;-84
2022/03/18 12:46:02;;;;;;;12.73;4.35;;;21.60;99.90;;;;;;4993967;28;20230;-85
2022/03/18 12:48:34;;;;;;;9.38;4.00;;;21.70;99.90;;;;;;4992893;28;20239;-86
2022/03/18 12:51:06;;;;;;;11.40;4.30;;;21.70;99.90;;;;;;4993339;28;20196;-85
2022/03/18 12:53:37;;;;;;;7.43;4.60;;;21.70;99.90;;;;;;4993635;28;20187;-86
2022/03/18 12:56:08;;;;;;;12.93;3.95;;;21.70;99.90;;;;;;4994037;28;20198;-85
2022/03/18 12:58:41;;;;;;;12.00;4.40;;;21.60;99.90;;;;;;4992149;28;20290;-85
2022/03/18 13:01:15;;;;;;;12.30;3.90;;;21.60;99.90;;;;;;4992451;28;20191;-85
2022/03/18 13:03:55;;;;;;;12.02;4.38;;;21.60;99.90;;;;;;4993833;28;20245;-85
2022/03/18 13:06:32;;;;;;;11.30;4.47;;;21.60;99.90;;;;;;4993175;28;20651;-85
2022/03/18 13:09:13;;;;;;;14.15;3.65;;;21.60;99.90;;;;;;4993442;28;20194;-84
2022/03/18 13:11:46;;;;;;;13.25;4.05;;;21.60;99.90;;;;;;4993221;28;20207;-85
2022/03/18 13:14:31;;;;;;;11.27;3.92;;;21.60;99.90;;;;;;4991238;28;20251;-86
2022/03/18 13:17:05;;;;;;;13.52;4.28;;;21.60;99.90;;;;;;4989244;28;20210;-84
2022/03/18 13:19:46;;;;;;;10.63;3.88;;;21.60;99.90;;;;;;4993151;28;20205;-87
2022/03/18 13:22:28;;;;;;;11.30;4.13;;;21.60;99.90;;;;;;4990238;28;20242;-85
2022/03/18 13:25:02;;;;;;;10.88;3.70;;;21.60;99.90;;;;;;4990739;28;20192;-85
2022/03/18 13:27:33;;;;;;;10.00;3.42;;;21.60;99.90;;;;;;4992459;28;20274;-85
2022/03/18 13:32:55;;;;;;;11.48;3.70;;;21.50;99.90;;;;;;4990006;28;20190;-85
2022/03/18 13:35:29;;;;;;;11.88;3.65;;;21.50;99.90;;;;;;4987034;28;20207;-87